sensor_id;sensor_type;location;lat;lon;timestamp;pressure;altitude;pressure_sealevel;temperature;humidity
21960;BME280;11144;43.030;25.108;2023-07-08T00:00:09;99367.47;;;23.39;58.16
21960;BME280;11144;43.030;25.108;2023-07-08T00:01:43;99370.69;;;23.36;57.76
21960;BME280;11144;43.030;25.108;2023-07-08T00:03:16;99366.41;;;23.35;57.82
21960;BME280;11144;43.030;25.108;2023-07-08T00:04:50;99371.75;;;23.35;57.68
21960;BME280;11144;43.030;25.108;2023-07-08T00:06:26;99382.44;;;23.35;58.20
21960;BME280;11144;43.030;25.108;2023-07-08T00:08:00;99368.03;;;23.36;58.04
21960;BME280;11144;43.030;25.108;2023-07-08T00:09:33;99375.50;;;23.39;58.17
21960;BME280;11144;43.030;25.108;2023-07-08T00:11:09;99358.06;;;23.31;58.28
21960;BME280;11144;43.030;25.108;2023-07-08T00:12:43;99377.09;;;23.35;58.28
21960;BME280;11144;43.030;25.108;2023-07-08T00:14:16;99365.56;;;23.29;58.12
21960;BME280;11144;43.030;25.108;2023-07-08T00:15:49;99357.78;;;23.23;58.13
21960;BME280;11144;43.030;25.108;2023-07-08T00:17:25;99370.88;;;23.24;58.26
21960;BME280;11144;43.030;25.108;2023-07-08T00:18:57;99377.03;;;23.20;58.28
21960;BME280;11144;43.030;25.108;2023-07-08T00:20:32;99379.69;;;23.20;58.62
21960;BME280;11144;43.030;25.108;2023-07-08T00:22:13;99377.53;;;23.17;58.40
21960;BME280;11144;43.030;25.108;2023-07-08T00:23:47;99382.88;;;23.12;58.59
21960;BME280;11144;43.030;25.108;2023-07-08T00:25:21;99379.13;;;23.13;58.77
21960;BME280;11144;43.030;25.108;2023-07-08T00:26:55;99380.72;;;23.09;58.86
21960;BME280;11144;43.030;25.108;2023-07-08T00:28:28;99380.19;;;23.07;58.60
21960;BME280;11144;43.030;25.108;2023-07-08T00:30:04;99379.38;;;23.06;59.10
21960;BME280;11144;43.030;25.108;2023-07-08T00:31:41;99379.06;;;22.98;59.04
21960;BME280;11144;43.030;25.108;2023-07-08T00:33:14;99372.66;;;22.99;58.70
21960;BME280;11144;43.030;25.108;2023-07-08T00:34:49;99378.56;;;23.01;58.70
21960;BME280;11144;43.030;25.108;2023-07-08T00:36:23;99375.34;;;23.04;58.74
21960;BME280;11144;43.030;25.108;2023-07-08T00:37:56;99371.63;;;23.05;58.70
21960;BME280;11144;43.030;25.108;2023-07-08T00:39:33;99370.28;;;23.07;58.56
21960;BME280;11144;43.030;25.108;2023-07-08T00:41:11;99379.66;;;23.10;58.19
21960;BME280;11144;43.030;25.108;2023-07-08T00:42:47;99376.44;;;23.13;58.66
21960;BME280;11144;43.030;25.108;2023-07-08T00:44:20;99379.13;;;23.13;58.75
21960;BME280;11144;43.030;25.108;2023-07-08T00:46:00;99373.22;;;23.11;58.56
21960;BME280;11144;43.030;25.108;2023-07-08T00:47:36;99376.72;;;23.11;58.73
21960;BME280;11144;43.030;25.108;2023-07-08T00:49:19;99375.38;;;23.09;58.42
21960;BME280;11144;43.030;25.108;2023-07-08T00:50:56;99380.19;;;23.07;58.63
21960;BME280;11144;43.030;25.108;2023-07-08T00:52:30;99381.50;;;23.04;58.72
21960;BME280;11144;43.030;25.108;2023-07-08T00:54:02;99379.91;;;23.03;58.87
21960;BME280;11144;43.030;25.108;2023-07-08T00:55:35;99375.88;;;23.01;58.81
21960;BME280;11144;43.030;25.108;2023-07-08T00:57:08;99370.00;;;23.04;58.59
21960;BME280;11144;43.030;25.108;2023-07-08T00:58:47;99374.81;;;23.07;58.63
21960;BME280;11144;43.030;25.108;2023-07-08T01:00:21;99374.81;;;23.07;59.01
21960;BME280;11144;43.030;25.108;2023-07-08T01:01:55;99378.56;;;23.01;58.89
21960;BME280;11144;43.030;25.108;2023-07-08T01:03:30;99382.28;;;23.00;59.28
21960;BME280;11144;43.030;25.108;2023-07-08T01:05:07;99388.13;;;22.97;59.50
21960;BME280;11144;43.030;25.108;2023-07-08T01:06:46;99380.91;;;22.97;59.95
21960;BME280;11144;43.030;25.108;2023-07-08T01:08:29;99385.47;;;22.97;58.95
21960;BME280;11144;43.030;25.108;2023-07-08T01:10:06;99390.81;;;22.97;59.20
21960;BME280;11144;43.030;25.108;2023-07-08T01:11:44;99386.00;;;22.94;59.58
21960;BME280;11144;43.030;25.108;2023-07-08T01:13:17;99388.94;;;22.92;59.20
21960;BME280;11144;43.030;25.108;2023-07-08T01:14:54;99385.97;;;22.89;59.50
21960;BME280;11144;43.030;25.108;2023-07-08T01:16:27;99392.94;;;22.90;59.39
21960;BME280;11144;43.030;25.108;2023-07-08T01:18:01;99389.13;;;22.86;59.53
21960;BME280;11144;43.030;25.108;2023-07-08T01:19:35;99391.28;;;22.84;59.59
21960;BME280;11144;43.030;25.108;2023-07-08T01:21:30;99393.97;;;22.89;59.34
21960;BME280;11144;43.030;25.108;2023-07-08T01:23:06;99397.97;;;22.86;59.49
21960;BME280;11144;43.030;25.108;2023-07-08T01:24:40;99401.16;;;22.78;59.94
21960;BME280;11144;43.030;25.108;2023-07-08T01:26:14;99411.38;;;22.54;60.44
21960;BME280;11144;43.030;25.108;2023-07-08T01:27:49;99408.63;;;22.44;60.76
21960;BME280;11144;43.030;25.108;2023-07-08T01:29:25;99402.63;;;22.27;60.97
21960;BME280;11144;43.030;25.108;2023-07-08T01:30:57;99405.94;;;22.13;61.07
21960;BME280;11144;43.030;25.108;2023-07-08T01:32:38;99395.94;;;21.98;61.49
21960;BME280;11144;43.030;25.108;2023-07-08T01:34:11;99389.19;;;21.90;61.35
21960;BME280;11144;43.030;25.108;2023-07-08T01:35:45;99407.34;;;21.67;61.31
21960;BME280;11144;43.030;25.108;2023-07-08T01:37:23;99401.69;;;20.98;63.90
21960;BME280;11144;43.030;25.108;2023-07-08T01:38:58;99405.63;;;20.41;66.37
21960;BME280;11144;43.030;25.108;2023-07-08T01:40:33;99395.41;;;20.05;68.28
21960;BME280;11144;43.030;25.108;2023-07-08T01:42:06;99395.88;;;19.85;68.36
21960;BME280;11144;43.030;25.108;2023-07-08T01:43:39;99402.91;;;19.63;69.39
21960;BME280;11144;43.030;25.108;2023-07-08T01:45:14;99404.56;;;19.52;71.11
21960;BME280;11144;43.030;25.108;2023-07-08T01:46:46;99399.53;;;19.28;70.35
21960;BME280;11144;43.030;25.108;2023-07-08T01:48:22;99424.72;;;19.25;71.89
21960;BME280;11144;43.030;25.108;2023-07-08T01:49:58;99412.50;;;19.12;74.22
21960;BME280;11144;43.030;25.108;2023-07-08T01:51:31;99412.63;;;19.06;72.30
21960;BME280;11144;43.030;25.108;2023-07-08T01:53:08;99392.34;;;18.88;74.62
21960;BME280;11144;43.030;25.108;2023-07-08T01:54:43;99403.28;;;18.92;74.48
21960;BME280;11144;43.030;25.108;2023-07-08T01:56:16;99402.13;;;18.88;72.68
21960;BME280;11144;43.030;25.108;2023-07-08T01:57:51;99409.09;;;18.89;73.69
21960;BME280;11144;43.030;25.108;2023-07-08T01:59:23;99400.19;;;18.83;75.08
21960;BME280;11144;43.030;25.108;2023-07-08T02:00:57;99400.06;;;18.90;74.96
21960;BME280;11144;43.030;25.108;2023-07-08T02:02:31;99392.66;;;18.92;74.70
21960;BME280;11144;43.030;25.108;2023-07-08T02:04:04;99393.84;;;18.96;73.20
21960;BME280;11144;43.030;25.108;2023-07-08T02:05:37;99392.78;;;18.97;73.57
21960;BME280;11144;43.030;25.108;2023-07-08T02:07:10;99388.97;;;18.93;73.62
21960;BME280;11144;43.030;25.108;2023-07-08T02:08:43;99397.84;;;18.98;73.37
21960;BME280;11144;43.030;25.108;2023-07-08T02:10:18;99395.44;;;18.97;73.90
21960;BME280;11144;43.030;25.108;2023-07-08T02:11:50;99395.06;;;19.05;74.11
21960;BME280;11144;43.030;25.108;2023-07-08T02:13:24;99402.56;;;19.08;74.00
21960;BME280;11144;43.030;25.108;2023-07-08T02:15:00;99404.41;;;19.07;73.99
21960;BME280;11144;43.030;25.108;2023-07-08T02:16:32;99400.97;;;19.07;74.17
21960;BME280;11144;43.030;25.108;2023-07-08T02:18:05;99404.91;;;19.04;74.36
21960;BME280;11144;43.030;25.108;2023-07-08T02:19:39;99389.09;;;18.98;73.77
21960;BME280;11144;43.030;25.108;2023-07-08T02:21:12;99400.75;;;18.97;75.68
21960;BME280;11144;43.030;25.108;2023-07-08T02:22:45;99401.56;;;18.97;75.38
21960;BME280;11144;43.030;25.108;2023-07-08T02:24:17;99404.34;;;19.02;75.12
21960;BME280;11144;43.030;25.108;2023-07-08T02:25:54;99401.19;;;19.05;75.72
21960;BME280;11144;43.030;25.108;2023-07-08T02:27:28;99402.00;;;19.06;75.89
21960;BME280;11144;43.030;25.108;2023-07-08T02:29:00;99407.44;;;19.11;77.16
21960;BME280;11144;43.030;25.108;2023-07-08T02:30:35;99401.88;;;19.12;76.00
21960;BME280;11144;43.030;25.108;2023-07-08T02:32:09;99410.66;;;19.13;76.02
21960;BME280;11144;43.030;25.108;2023-07-08T02:33:41;99405.81;;;19.10;75.64
21960;BME280;11144;43.030;25.108;2023-07-08T02:35:16;99409.59;;;19.14;76.01
21960;BME280;11144;43.030;25.108;2023-07-08T02:36:48;99411.94;;;19.10;75.66
21960;BME280;11144;43.030;25.108;2023-07-08T02:38:23;99415.97;;;19.13;75.62
21960;BME280;11144;43.030;25.108;2023-07-08T02:39:55;99413.06;;;19.14;78.12
21960;BME280;11144;43.030;25.108;2023-07-08T02:41:30;99418.75;;;19.18;76.98
21960;BME280;11144;43.030;25.108;2023-07-08T02:43:02;99416.66;;;19.20;76.96
21960;BME280;11144;43.030;25.108;2023-07-08T02:44:36;99418.84;;;19.23;77.54
21960;BME280;11144;43.030;25.108;2023-07-08T02:46:08;99412.25;;;19.26;76.96
21960;BME280;11144;43.030;25.108;2023-07-08T02:47:41;99404.03;;;19.27;76.39
21960;BME280;11144;43.030;25.108;2023-07-08T02:49:14;99395.72;;;19.24;76.62
21960;BME280;11144;43.030;25.108;2023-07-08T02:50:47;99406.47;;;19.29;76.87
21960;BME280;11144;43.030;25.108;2023-07-08T02:52:19;99393.75;;;19.31;76.64
21960;BME280;11144;43.030;25.108;2023-07-08T02:53:54;99375.75;;;19.21;77.02
21960;BME280;11144;43.030;25.108;2023-07-08T02:55:26;99396.41;;;19.31;76.57
21960;BME280;11144;43.030;25.108;2023-07-08T02:57:01;99391.91;;;19.31;76.74
21960;BME280;11144;43.030;25.108;2023-07-08T02:58:34;99387.06;;;19.28;76.84
21960;BME280;11144;43.030;25.108;2023-07-08T03:00:07;99384.63;;;19.27;76.69
21960;BME280;11144;43.030;25.108;2023-07-08T03:01:40;99383.00;;;19.26;77.26
21960;BME280;11144;43.030;25.108;2023-07-08T03:03:14;99379.78;;;19.24;77.41
21960;BME280;11144;43.030;25.108;2023-07-08T03:04:48;99381.41;;;19.25;77.25
21960;BME280;11144;43.030;25.108;2023-07-08T03:06:21;99383.00;;;19.26;76.89
21960;BME280;11144;43.030;25.108;2023-07-08T03:07:55;99380.34;;;19.26;77.38
21960;BME280;11144;43.030;25.108;2023-07-08T03:09:27;99381.16;;;19.26;77.83
21960;BME280;11144;43.030;25.108;2023-07-08T03:11:02;99384.63;;;19.27;77.85
21960;BME280;11144;43.030;25.108;2023-07-08T03:12:36;99391.22;;;19.24;77.62
21960;BME280;11144;43.030;25.108;2023-07-08T03:14:10;99386.63;;;19.20;77.67
21960;BME280;11144;43.030;25.108;2023-07-08T03:15:44;99381.69;;;19.11;77.48
21960;BME280;11144;43.030;25.108;2023-07-08T03:17:18;99395.19;;;19.10;77.79
21960;BME280;11144;43.030;25.108;2023-07-08T03:18:51;99392.19;;;19.06;78.24
21960;BME280;11144;43.030;25.108;2023-07-08T03:20:24;99394.03;;;19.06;78.24
21960;BME280;11144;43.030;25.108;2023-07-08T03:21:57;99401.19;;;19.05;78.62
21960;BME280;11144;43.030;25.108;2023-07-08T03:23:30;99401.69;;;19.02;78.40
21960;BME280;11144;43.030;25.108;2023-07-08T03:25:03;99400.03;;;19.01;78.13
21960;BME280;11144;43.030;25.108;2023-07-08T03:26:37;99399.81;;;19.03;78.59
21960;BME280;11144;43.030;25.108;2023-07-08T03:28:12;99397.63;;;19.00;78.77
21960;BME280;11144;43.030;25.108;2023-07-08T03:29:47;99400.72;;;19.08;78.94
21960;BME280;11144;43.030;25.108;2023-07-08T03:31:21;99394.59;;;19.08;79.49
21960;BME280;11144;43.030;25.108;2023-07-08T03:32:54;99396.81;;;19.11;78.93
21960;BME280;11144;43.030;25.108;2023-07-08T03:34:28;99402.81;;;19.18;79.10
21960;BME280;11144;43.030;25.108;2023-07-08T03:36:01;99400.34;;;19.17;79.35
21960;BME280;11144;43.030;25.108;2023-07-08T03:37:33;99413.66;;;19.17;79.29
21960;BME280;11144;43.030;25.108;2023-07-08T03:39:09;99405.34;;;19.13;79.68
21960;BME280;11144;43.030;25.108;2023-07-08T03:40:41;99405.69;;;19.17;79.46
21960;BME280;11144;43.030;25.108;2023-07-08T03:42:16;99409.72;;;19.19;80.28
21960;BME280;11144;43.030;25.108;2023-07-08T03:43:50;99399.91;;;19.20;79.53
21960;BME280;11144;43.030;25.108;2023-07-08T03:45:25;99397.56;;;19.23;79.22
21960;BME280;11144;43.030;25.108;2023-07-08T03:46:58;99413.75;;;19.33;78.73
21960;BME280;11144;43.030;25.108;2023-07-08T03:48:31;99415.94;;;19.36;78.68
21960;BME280;11144;43.030;25.108;2023-07-08T03:50:05;99412.00;;;19.39;78.75
21960;BME280;11144;43.030;25.108;2023-07-08T03:51:40;99422.19;;;19.42;79.59
21960;BME280;11144;43.030;25.108;2023-07-08T03:53:14;99417.69;;;19.42;78.55
21960;BME280;11144;43.030;25.108;2023-07-08T03:54:47;99404.72;;;19.34;79.69
21960;BME280;11144;43.030;25.108;2023-07-08T03:56:22;99421.13;;;19.43;79.76
21960;BME280;11144;43.030;25.108;2023-07-08T03:57:54;99420.19;;;19.49;79.38
21960;BME280;11144;43.030;25.108;2023-07-08T03:59:29;99418.44;;;19.54;79.31
21960;BME280;11144;43.030;25.108;2023-07-08T04:01:03;99410.00;;;19.57;79.07
21960;BME280;11144;43.030;25.108;2023-07-08T04:02:35;99425.09;;;19.68;79.02
21960;BME280;11144;43.030;25.108;2023-07-08T04:04:12;99432.03;;;19.69;78.88
21960;BME280;11144;43.030;25.108;2023-07-08T04:05:44;99426.69;;;19.69;79.03
21960;BME280;11144;43.030;25.108;2023-07-08T04:07:18;99426.25;;;19.72;78.33
21960;BME280;11144;43.030;25.108;2023-07-08T04:08:51;99434.53;;;19.76;78.60
21960;BME280;11144;43.030;25.108;2023-07-08T04:10:24;99440.66;;;19.76;78.72
21960;BME280;11144;43.030;25.108;2023-07-08T04:11:57;99442.06;;;19.79;78.90
21960;BME280;11144;43.030;25.108;2023-07-08T04:13:30;99437.56;;;19.79;78.73
21960;BME280;11144;43.030;25.108;2023-07-08T04:15:08;99442.88;;;19.79;78.30
21960;BME280;11144;43.030;25.108;2023-07-08T04:16:48;99435.22;;;19.83;78.07
21960;BME280;11144;43.030;25.108;2023-07-08T04:18:23;99445.03;;;19.82;78.46
21960;BME280;11144;43.030;25.108;2023-07-08T04:19:56;99438.22;;;19.87;78.42
21960;BME280;11144;43.030;25.108;2023-07-08T04:21:29;99432.91;;;19.87;77.84
21960;BME280;11144;43.030;25.108;2023-07-08T04:23:02;99435.88;;;19.90;78.11
21960;BME280;11144;43.030;25.108;2023-07-08T04:24:35;99427.19;;;19.95;78.02
21960;BME280;11144;43.030;25.108;2023-07-08T04:26:09;99425.41;;;20.00;78.07
21960;BME280;11144;43.030;25.108;2023-07-08T04:27:41;99422.63;;;20.07;78.00
21960;BME280;11144;43.030;25.108;2023-07-08T04:29:16;99428.25;;;20.10;77.84
21960;BME280;11144;43.030;25.108;2023-07-08T04:30:51;99429.84;;;20.11;77.44
21960;BME280;11144;43.030;25.108;2023-07-08T04:32:24;99431.00;;;20.15;77.92
21960;BME280;11144;43.030;25.108;2023-07-08T04:33:57;99425.13;;;20.13;77.57
21960;BME280;11144;43.030;25.108;2023-07-08T04:35:30;99427.63;;;20.20;77.84
21960;BME280;11144;43.030;25.108;2023-07-08T04:37:03;99430.38;;;20.25;77.62
21960;BME280;11144;43.030;25.108;2023-07-08T04:38:36;99415.56;;;20.29;77.68
21960;BME280;11144;43.030;25.108;2023-07-08T04:40:16;99412.97;;;20.34;77.61
21960;BME280;11144;43.030;25.108;2023-07-08T04:41:49;99417.81;;;20.37;77.60
21960;BME280;11144;43.030;25.108;2023-07-08T04:43:22;99422.34;;;20.53;77.56
21960;BME280;11144;43.030;25.108;2023-07-08T04:45:01;99424.28;;;20.58;77.41
21960;BME280;11144;43.030;25.108;2023-07-08T04:46:40;99423.22;;;20.58;77.68
21960;BME280;11144;43.030;25.108;2023-07-08T04:48:13;99416.03;;;20.59;78.12
21960;BME280;11144;43.030;25.108;2023-07-08T04:49:47;99412.16;;;20.67;77.29
21960;BME280;11144;43.030;25.108;2023-07-08T04:51:19;99410.38;;;20.72;77.26
21960;BME280;11144;43.030;25.108;2023-07-08T04:52:53;99407.53;;;20.79;77.39
21960;BME280;11144;43.030;25.108;2023-07-08T04:54:26;99406.81;;;20.83;77.55
21960;BME280;11144;43.030;25.108;2023-07-08T04:55:59;99410.66;;;20.92;77.17
21960;BME280;11144;43.030;25.108;2023-07-08T04:57:32;99416.84;;;20.98;77.01
21960;BME280;11144;43.030;25.108;2023-07-08T04:59:07;99410.78;;;21.02;77.05
21960;BME280;11144;43.030;25.108;2023-07-08T05:00:39;99415.97;;;21.09;76.99
21960;BME280;11144;43.030;25.108;2023-07-08T05:02:14;99415.88;;;21.20;76.78
21960;BME280;11144;43.030;25.108;2023-07-08T05:03:47;99405.09;;;21.32;77.04
21960;BME280;11144;43.030;25.108;2023-07-08T05:05:20;99414.75;;;21.38;75.78
21960;BME280;11144;43.030;25.108;2023-07-08T05:06:53;99402.16;;;21.34;75.28
21960;BME280;11144;43.030;25.108;2023-07-08T05:08:27;99404.69;;;21.45;75.26
21960;BME280;11144;43.030;25.108;2023-07-08T05:09:59;99408.47;;;21.49;74.82
21960;BME280;11144;43.030;25.108;2023-07-08T05:11:32;99401.09;;;21.56;75.32
21960;BME280;11144;43.030;25.108;2023-07-08T05:13:05;99409.72;;;21.63;74.80
21960;BME280;11144;43.030;25.108;2023-07-08T05:14:39;99406.72;;;21.60;74.58
21960;BME280;11144;43.030;25.108;2023-07-08T05:16:11;99404.94;;;21.65;75.27
21960;BME280;11144;43.030;25.108;2023-07-08T05:17:46;99404.13;;;21.65;75.06
21960;BME280;11144;43.030;25.108;2023-07-08T05:19:18;99407.66;;;21.70;74.97
21960;BME280;11144;43.030;25.108;2023-07-08T05:20:55;99408.44;;;21.71;74.55
21960;BME280;11144;43.030;25.108;2023-07-08T05:22:28;99405.63;;;21.82;74.33
21960;BME280;11144;43.030;25.108;2023-07-08T05:24:01;99404.63;;;21.83;73.79
21960;BME280;11144;43.030;25.108;2023-07-08T05:25:35;99415.34;;;21.88;73.52
21960;BME280;11144;43.030;25.108;2023-07-08T05:27:08;99401.53;;;22.23;74.00
21960;BME280;11144;43.030;25.108;2023-07-08T05:28:42;99407.25;;;22.73;73.33
21960;BME280;11144;43.030;25.108;2023-07-08T05:30:17;99405.41;;;23.31;72.57
21960;BME280;11144;43.030;25.108;2023-07-08T05:31:50;99400.22;;;23.71;71.01
21960;BME280;11144;43.030;25.108;2023-07-08T05:33:25;99396.00;;;24.21;68.38
21960;BME280;11144;43.030;25.108;2023-07-08T05:34:59;99403.50;;;24.64;68.10
21960;BME280;11144;43.030;25.108;2023-07-08T05:36:31;99403.50;;;24.69;66.36
21960;BME280;11144;43.030;25.108;2023-07-08T05:38:04;99404.56;;;24.73;66.30
21960;BME280;11144;43.030;25.108;2023-07-08T05:39:37;99405.63;;;24.72;67.41
21960;BME280;11144;43.030;25.108;2023-07-08T05:41:10;99396.53;;;24.68;66.38
21960;BME280;11144;43.030;25.108;2023-07-08T05:42:44;99403.50;;;24.64;65.81
21960;BME280;11144;43.030;25.108;2023-07-08T05:44:17;99404.56;;;24.63;65.45
21960;BME280;11144;43.030;25.108;2023-07-08T05:45:49;99412.38;;;24.44;62.70
21960;BME280;11144;43.030;25.108;2023-07-08T05:47:42;99417.72;;;24.59;64.38
21960;BME280;11144;43.030;25.108;2023-07-08T05:49:17;99408.63;;;24.75;64.79
21960;BME280;11144;43.030;25.108;2023-07-08T05:50:51;99413.41;;;24.83;63.67
21960;BME280;11144;43.030;25.108;2023-07-08T05:52:23;99403.47;;;24.99;62.07
21960;BME280;11144;43.030;25.108;2023-07-08T05:53:56;99405.53;;;25.22;62.48
21960;BME280;11144;43.030;25.108;2023-07-08T05:55:31;99416.25;;;25.27;61.56
21960;BME280;11144;43.030;25.108;2023-07-08T05:57:05;99409.75;;;25.48;63.83
21960;BME280;11144;43.030;25.108;2023-07-08T05:58:38;99412.34;;;25.69;60.55
21960;BME280;11144;43.030;25.108;2023-07-08T06:00:12;99418.22;;;25.71;60.01
21960;BME280;11144;43.030;25.108;2023-07-08T06:01:54;99417.44;;;26.09;60.79
21960;BME280;11144;43.030;25.108;2023-07-08T06:03:28;99408.84;;;26.07;59.71
21960;BME280;11144;43.030;25.108;2023-07-08T06:05:01;99411.22;;;25.75;58.65
21960;BME280;11144;43.030;25.108;2023-07-08T06:06:34;99408.41;;;25.36;60.55
21960;BME280;11144;43.030;25.108;2023-07-08T06:08:07;99410.69;;;25.09;59.51
21960;BME280;11144;43.030;25.108;2023-07-08T06:09:40;99409.41;;;24.66;60.20
21960;BME280;11144;43.030;25.108;2023-07-08T06:11:13;99405.91;;;24.80;59.39
21960;BME280;11144;43.030;25.108;2023-07-08T06:12:45;99408.28;;;25.02;59.53
21960;BME280;11144;43.030;25.108;2023-07-08T06:14:19;99407.19;;;25.08;58.88
21960;BME280;11144;43.030;25.108;2023-07-08T06:15:52;99413.19;;;24.80;58.75
21960;BME280;11144;43.030;25.108;2023-07-08T06:17:25;99417.44;;;24.66;58.51
21960;BME280;11144;43.030;25.108;2023-07-08T06:18:58;99419.59;;;24.24;58.73
21960;BME280;11144;43.030;25.108;2023-07-08T06:20:32;99418.25;;;24.11;59.92
21960;BME280;11144;43.030;25.108;2023-07-08T06:22:05;99417.44;;;24.10;59.82
21960;BME280;11144;43.030;25.108;2023-07-08T06:23:57;99419.59;;;24.08;59.24
21960;BME280;11144;43.030;25.108;2023-07-08T06:25:31;99418.00;;;24.12;59.31
21960;BME280;11144;43.030;25.108;2023-07-08T06:27:05;99420.91;;;23.96;59.06
21960;BME280;11144;43.030;25.108;2023-07-08T06:28:38;99421.16;;;23.89;58.93
21960;BME280;11144;43.030;25.108;2023-07-08T06:30:11;99428.59;;;23.77;59.50
21960;BME280;11144;43.030;25.108;2023-07-08T06:31:43;99420.84;;;23.71;59.62
21960;BME280;11144;43.030;25.108;2023-07-08T06:33:17;99429.44;;;23.78;59.75
21960;BME280;11144;43.030;25.108;2023-07-08T06:34:49;99431.81;;;23.74;59.47
21960;BME280;11144;43.030;25.108;2023-07-08T06:36:24;99432.88;;;23.73;59.14
21960;BME280;11144;43.030;25.108;2023-07-08T06:37:58;99431.00;;;23.69;60.15
21960;BME280;11144;43.030;25.108;2023-07-08T06:39:31;99430.47;;;23.67;59.56
21960;BME280;11144;43.030;25.108;2023-07-08T06:41:03;99434.22;;;23.71;59.51
21960;BME280;11144;43.030;25.108;2023-07-08T06:42:36;99428.34;;;23.79;59.32
21960;BME280;11144;43.030;25.108;2023-07-08T06:44:25;99430.78;;;23.80;59.14
21960;BME280;11144;43.030;25.108;2023-07-08T06:45:58;99439.59;;;23.81;59.58
21960;BME280;11144;43.030;25.108;2023-07-08T06:47:32;99446.53;;;23.77;59.18
21960;BME280;11144;43.030;25.108;2023-07-08T06:49:04;99442.78;;;23.63;59.06
21960;BME280;11144;43.030;25.108;2023-07-08T06:50:41;99446.25;;;23.68;59.63
21960;BME280;11144;43.030;25.108;2023-07-08T06:52:15;99445.97;;;23.60;59.71
21960;BME280;11144;43.030;25.108;2023-07-08T06:53:49;99447.81;;;23.59;59.56
21960;BME280;11144;43.030;25.108;2023-07-08T06:55:22;99451.59;;;23.58;59.56
21960;BME280;11144;43.030;25.108;2023-07-08T06:56:54;99445.69;;;23.56;59.16
21960;BME280;11144;43.030;25.108;2023-07-08T06:58:27;99440.16;;;23.21;59.41
21960;BME280;11144;43.030;25.108;2023-07-08T07:00:01;99447.09;;;23.22;59.93
21960;BME280;11144;43.030;25.108;2023-07-08T07:01:35;99454.88;;;23.28;59.52
21960;BME280;11144;43.030;25.108;2023-07-08T07:03:09;99457.06;;;23.31;59.82
21960;BME280;11144;43.030;25.108;2023-07-08T07:04:42;99459.47;;;23.33;59.85
21960;BME280;11144;43.030;25.108;2023-07-08T07:06:15;99448.75;;;23.33;59.46
21960;BME280;11144;43.030;25.108;2023-07-08T07:07:50;99451.50;;;23.38;59.68
21960;BME280;11144;43.030;25.108;2023-07-08T07:09:24;99460.06;;;23.40;59.53
21960;BME280;11144;43.030;25.108;2023-07-08T07:10:57;99456.31;;;23.36;59.37
21960;BME280;11144;43.030;25.108;2023-07-08T07:12:30;99457.13;;;23.41;59.24
21960;BME280;11144;43.030;25.108;2023-07-08T07:14:04;99453.41;;;23.53;59.97
21960;BME280;11144;43.030;25.108;2023-07-08T07:15:57;99455.38;;;23.67;60.43
21960;BME280;11144;43.030;25.108;2023-07-08T07:17:31;99452.69;;;23.72;60.21
21960;BME280;11144;43.030;25.108;2023-07-08T07:19:03;99452.97;;;23.76;60.43
21960;BME280;11144;43.030;25.108;2023-07-08T07:20:37;99460.22;;;23.90;60.30
21960;BME280;11144;43.030;25.108;2023-07-08T07:22:09;99454.63;;;23.87;59.56
21960;BME280;11144;43.030;25.108;2023-07-08T07:23:44;99444.16;;;23.85;59.67
21960;BME280;11144;43.030;25.108;2023-07-08T07:25:18;99449.81;;;23.94;60.19
21960;BME280;11144;43.030;25.108;2023-07-08T07:26:51;99455.97;;;23.99;59.76
21960;BME280;11144;43.030;25.108;2023-07-08T07:28:23;99448.00;;;24.14;59.53
21960;BME280;11144;43.030;25.108;2023-07-08T07:29:57;99448.28;;;24.28;59.23
21960;BME280;11144;43.030;25.108;2023-07-08T07:31:31;99431.91;;;24.30;59.28
21960;BME280;11144;43.030;25.108;2023-07-08T07:33:05;99446.41;;;24.34;58.98
21960;BME280;11144;43.030;25.108;2023-07-08T07:34:37;99446.66;;;24.47;58.41
21960;BME280;11144;43.030;25.108;2023-07-08T07:36:11;99453.38;;;24.60;58.82
21960;BME280;11144;43.030;25.108;2023-07-08T07:37:45;99448.53;;;24.97;58.51
21960;BME280;11144;43.030;25.108;2023-07-08T07:39:19;99445.03;;;25.07;57.73
21960;BME280;11144;43.030;25.108;2023-07-08T07:40:52;99451.22;;;24.97;57.61
21960;BME280;11144;43.030;25.108;2023-07-08T07:42:27;99457.13;;;24.59;57.63
21960;BME280;11144;43.030;25.108;2023-07-08T07:43:59;99452.81;;;24.43;57.82
21960;BME280;11144;43.030;25.108;2023-07-08T07:45:33;99463.53;;;24.43;57.47
21960;BME280;11144;43.030;25.108;2023-07-08T07:47:05;99452.56;;;24.44;57.54
21960;BME280;11144;43.030;25.108;2023-07-08T07:48:39;99461.66;;;24.43;57.48
21960;BME280;11144;43.030;25.108;2023-07-08T07:50:14;99459.78;;;24.39;57.22
21960;BME280;11144;43.030;25.108;2023-07-08T07:51:47;99458.22;;;24.38;57.25
21960;BME280;11144;43.030;25.108;2023-07-08T07:53:20;99459.00;;;24.43;57.45
21960;BME280;11144;43.030;25.108;2023-07-08T07:54:55;99461.94;;;24.52;57.49
21960;BME280;11144;43.030;25.108;2023-07-08T07:56:27;99459.00;;;24.48;58.06
21960;BME280;11144;43.030;25.108;2023-07-08T07:58:00;99460.88;;;24.48;58.03
21960;BME280;11144;43.030;25.108;2023-07-08T07:59:33;99461.13;;;24.41;57.59
21960;BME280;11144;43.030;25.108;2023-07-08T08:01:07;99464.91;;;24.50;57.96
21960;BME280;11144;43.030;25.108;2023-07-08T08:02:40;99468.09;;;24.47;57.55
21960;BME280;11144;43.030;25.108;2023-07-08T08:04:12;99460.88;;;24.53;57.13
21960;BME280;11144;43.030;25.108;2023-07-08T08:05:46;99461.41;;;24.70;56.95
21960;BME280;11144;43.030;25.108;2023-07-08T08:07:20;99466.41;;;25.32;57.25
21960;BME280;11144;43.030;25.108;2023-07-08T08:08:52;99448.91;;;25.59;57.16
21960;BME280;11144;43.030;25.108;2023-07-08T08:10:27;99469.78;;;25.73;56.32
21960;BME280;11144;43.030;25.108;2023-07-08T08:12:01;99460.28;;;25.85;54.17